Time;durP1;ratioP1;P1;durP2;ratioP2;P2;SDS_P1;SDS_P2;PMS_P1;PMS_P2;Temp;Humidity;BMP_temperature;BMP_pressure;BME280_temperature;BME280_humidity;BME280_pressure;Samples;Min_cycle;Max_cycle;Signal;HPM_P1;HPM_P2
2022/09/20 00:01:09;;;;;;;4.45;1.98;;;;;;;9.01;100.00;100868.53;5038030;28;20060;-61
2022/09/20 00:03:38;;;;;;;4.20;1.15;;;;;;;8.95;100.00;100871.44;5053235;28;20057;-64
2022/09/20 00:06:07;;;;;;;3.40;1.40;;;;;;;8.95;100.00;100871.44;5054312;28;20434;-63
2022/09/20 00:08:35;;;;;;;3.22;1.05;;;;;;;8.93;100.00;100875.94;5054972;28;20052;-64
2022/09/20 00:11:08;;;;;;;4.20;0.90;;;;;;;8.90;100.00;100879.53;5052733;28;20422;-63
2022/09/20 00:13:37;;;;;;;4.63;0.82;;;;;;;8.85;100.00;100876.28;5033491;28;20063;-64
2022/09/20 00:16:10;;;;;;;2.00;1.02;;;;;;;8.83;100.00;100879.00;5015131;28;20052;-64
2022/09/20 00:18:37;;;;;;;2.92;1.23;;;;;;;8.85;100.00;100881.53;5030843;28;20056;-65
2022/09/20 00:21:05;;;;;;;2.25;0.90;;;;;;;8.84;100.00;100877.22;5052322;28;20113;-63
2022/09/20 00:23:35;;;;;;;4.25;1.38;;;;;;;8.84;100.00;100875.44;5053010;28;20140;-64
2022/09/20 00:26:03;;;;;;;4.75;2.10;;;;;;;8.81;100.00;100882.63;5052056;28;20040;-64
2022/09/20 00:28:33;;;;;;;5.03;1.30;;;;;;;8.81;100.00;100877.34;5050582;28;20053;-62
2022/09/20 00:31:00;;;;;;;3.78;1.10;;;;;;;8.88;100.00;100878.78;5049527;28;20508;-64
2022/09/20 00:35:06;;;;;;;3.38;0.90;;;;;;;8.90;100.00;100882.16;5048887;28;20065;-64
2022/09/20 00:36:15;;;;;;;3.67;1.73;;;;;;;8.94;100.00;100877.63;5049111;28;20056;-64
2022/09/20 00:38:42;;;;;;;4.88;1.10;;;;;;;8.86;100.00;100880.63;5050243;28;20059;-61
2022/09/20 00:41:09;;;;;;;2.65;1.55;;;;;;;8.81;100.00;100880.00;5047833;28;20061;-64
2022/09/20 00:43:39;;;;;;;3.50;0.85;;;;;;;8.85;100.00;100887.66;5043202;28;20317;-63
2022/09/20 00:46:20;;;;;;;4.05;1.00;;;;;;;8.82;100.00;100892.19;5050370;28;20059;-64
2022/09/20 00:48:49;;;;;;;1.55;0.90;;;;;;;8.81;100.00;100887.84;5028246;28;20056;-63
2022/09/20 00:51:22;;;;;;;5.53;1.15;;;;;;;8.77;100.00;100887.16;5030158;28;20061;-63
2022/09/20 00:53:49;;;;;;;3.90;1.10;;;;;;;8.81;100.00;100887.84;5029273;28;20044;-64
2022/09/20 00:56:21;;;;;;;3.35;1.05;;;;;;;8.79;100.00;100882.69;5030995;28;20048;-63
2022/09/20 00:58:53;;;;;;;4.72;1.05;;;;;;;8.79;100.00;100889.72;5034357;28;20059;-63
2022/09/20 01:01:20;;;;;;;3.05;0.90;;;;;;;8.76;100.00;100887.22;5021864;28;20076;-62
2022/09/20 01:03:48;;;;;;;3.55;1.13;;;;;;;8.72;100.00;100888.28;5025737;28;20036;-63
2022/09/20 01:06:16;;;;;;;3.45;0.93;;;;;;;8.73;100.00;100890.00;5046867;28;20060;-63
2022/09/20 01:08:48;;;;;;;7.97;1.77;;;;;;;8.83;100.00;100886.03;5043571;28;20061;-62
2022/09/20 01:11:15;;;;;;;2.55;1.30;;;;;;;8.74;100.00;100886.47;5046971;23;20045;-65
2022/09/20 01:13:43;;;;;;;2.10;0.98;;;;;;;8.72;100.00;100888.28;5032753;28;20064;-65
2022/09/20 01:16:11;;;;;;;1.58;0.90;;;;;;;8.77;100.00;100889.78;5045868;28;20045;-66
2022/09/20 01:18:39;;;;;;;2.35;0.90;;;;;;;8.76;100.00;100880.22;5032036;28;20052;-65
2022/09/20 01:21:07;;;;;;;2.65;0.88;;;;;;;8.77;100.00;100888.94;5032995;28;20725;-65
2022/09/20 01:23:37;;;;;;;1.73;0.82;;;;;;;8.73;100.00;100885.59;5030656;28;20036;-66
2022/09/20 01:26:31;;;;;;;1.88;0.90;;;;;;;8.73;100.00;100882.13;5011381;28;20441;-66
2022/09/20 01:29:16;;;;;;;2.95;0.90;;;;;;;8.79;100.00;100882.69;5042262;28;20500;-66
2022/09/20 01:31:46;;;;;;;2.58;0.98;;;;;;;8.77;100.00;100884.53;5025617;28;20059;-66
2022/09/20 01:34:17;;;;;;;4.93;1.10;;;;;;;8.70;100.00;100877.88;5029147;28;20060;-65
2022/09/20 01:36:59;;;;;;;2.35;0.80;;;;;;;8.68;100.00;100882.34;5044662;28;20440;-65
2022/09/20 01:39:55;;;;;;;3.35;1.00;;;;;;;8.62;100.00;100878.22;5031221;28;20049;-66
2022/09/20 01:42:24;;;;;;;;;;;;;;;8.58;100.00;100881.91;5047824;28;20057;-66
2022/09/20 01:44:55;;;;;;;2.40;0.80;;;;;;;8.56;100.00;100888.19;5027705;28;20545;-66
2022/09/20 01:47:47;;;;;;;4.10;0.80;;;;;;;8.53;100.00;100877.81;5030065;28;20537;-66
2022/09/20 01:50:52;;;;;;;3.03;0.90;;;;;;;8.58;100.00;100884.53;5043963;28;20056;-64
2022/09/20 01:53:43;;;;;;;3.88;0.98;;;;;;;8.53;100.00;100888.31;5043323;28;20045;-65
2022/09/20 01:56:44;;;;;;;1.42;0.85;;;;;;;8.46;100.00;100894.75;5045273;28;20136;-65
2022/09/20 01:59:49;;;;;;;3.00;1.80;;;;;;;8.45;100.00;100890.44;5049341;28;20060;-65
2022/09/20 02:02:25;;;;;;;2.15;1.00;;;;;;;8.51;100.00;100898.00;5039743;28;20061;-65
2022/09/20 02:04:55;;;;;;;5.43;1.15;;;;;;;8.47;100.00;100899.09;5044586;28;20056;-67
2022/09/20 02:07:48;;;;;;;3.10;1.40;;;;;;;8.46;100.00;100905.25;5045390;28;20068;-66
2022/09/20 02:10:51;;;;;;;5.75;1.50;;;;;;;8.44;100.00;100900.06;5025300;28;20053;-65
2022/09/20 02:13:28;;;;;;;2.97;1.50;;;;;;;8.36;100.00;100897.78;5027916;28;20037;-66
2022/09/20 02:16:16;;;;;;;4.97;1.40;;;;;;;8.32;100.00;100895.34;5044976;28;20056;-66
2022/09/20 02:19:28;;;;;;;5.32;1.67;;;;;;;8.30;100.00;100900.66;5043099;28;20462;-66
2022/09/20 02:22:25;;;;;;;3.78;1.80;;;;;;;8.32;100.00;100901.44;5023153;28;20049;-66
2022/09/20 02:25:11;;;;;;;2.65;1.50;;;;;;;8.35;100.00;100905.72;5045349;28;20053;-65
2022/09/20 02:27:54;;;;;;;5.57;1.70;;;;;;;8.34;100.00;100902.25;5037382;28;20501;-65
2022/09/20 02:30:50;;;;;;;7.78;1.40;;;;;;;8.34;100.00;100909.25;5026223;28;20057;-66
2022/09/20 02:33:26;;;;;;;;;;;;;;;8.33;100.00;100913.66;5024231;28;20486;-65
2022/09/20 02:36:11;;;;;;;3.20;1.40;;;;;;;8.35;100.00;100914.44;5045787;28;19921;-65
2022/09/20 02:39:05;;;;;;;2.25;1.33;;;;;;;8.41;100.00;100915.09;5043997;28;20057;-65
2022/09/20 02:41:53;;;;;;;7.10;1.30;;;;;;;8.39;100.00;100915.19;5044897;28;20393;-66
2022/09/20 02:44:39;;;;;;;4.25;1.10;;;;;;;8.40;100.00;100916.88;5041335;28;20098;-65
2022/09/20 02:47:24;;;;;;;4.70;1.20;;;;;;;8.47;100.00;100915.69;5045448;28;20045;-66
2022/09/20 02:49:57;;;;;;;4.43;1.88;;;;;;;8.50;100.00;100918.16;5021348;28;20060;-66
2022/09/20 02:53:12;;;;;;;5.50;1.70;;;;;;;8.50;100.00;100920.78;5046399;28;20045;-65
2022/09/20 02:55:45;;;;;;;3.40;1.17;;;;;;;8.47;100.00;100920.94;4993199;28;20085;-66
2022/09/20 02:58:37;;;;;;;6.60;1.33;;;;;;;8.50;100.00;100915.53;5049851;28;20045;-66
2022/09/20 03:01:19;;;;;;;1.27;0.80;;;;;;;8.51;100.00;100921.63;5013446;28;20033;-65
2022/09/20 03:04:01;;;;;;;1.90;1.05;;;;;;;8.48;100.00;100916.53;5014004;28;20048;-65
2022/09/20 03:06:47;;;;;;;6.00;1.10;;;;;;;8.51;100.00;100916.38;5023519;28;20054;-65
2022/09/20 03:09:39;;;;;;;2.30;0.90;;;;;;;8.53;100.00;100917.16;5041742;28;20051;-64
2022/09/20 03:12:26;;;;;;;5.47;1.88;;;;;;;8.53;100.00;100925.88;5021742;28;20058;-66
2022/09/20 03:15:15;;;;;;;3.15;0.80;;;;;;;8.60;100.00;100934.31;5047247;28;20659;-66
2022/09/20 03:18:04;;;;;;;3.22;1.17;;;;;;;8.59;100.00;100928.22;5029446;28;20049;-65
2022/09/20 03:20:51;;;;;;;5.22;0.90;;;;;;;8.54;100.00;100935.47;5048645;28;20052;-66
2022/09/20 03:23:55;;;;;;;2.08;0.90;;;;;;;8.57;100.00;100929.22;5038331;28;20083;-66
2022/09/20 03:26:51;;;;;;;2.33;0.70;;;;;;;8.55;100.00;100934.53;5048766;28;20064;-66
2022/09/20 03:29:41;;;;;;;2.15;0.80;;;;;;;8.58;100.00;100938.81;5018827;28;20064;-65
2022/09/20 03:32:13;;;;;;;4.38;1.45;;;;;;;8.62;100.00;100937.75;5046108;28;20644;-66
2022/09/20 03:34:52;;;;;;;1.70;0.90;;;;;;;8.65;100.00;100939.38;5045250;28;20056;-66
2022/09/20 03:37:48;;;;;;;3.17;0.93;;;;;;;8.68;100.00;100949.72;5047417;28;20669;-65
2022/09/20 03:40:28;;;;;;;3.33;0.95;;;;;;;8.65;100.00;100939.38;5034724;28;20045;-66
2022/09/20 03:43:02;;;;;;;4.00;1.20;;;;;;;8.61;100.00;100943.91;5045149;28;20061;-66
2022/09/20 03:45:39;;;;;;;2.85;1.05;;;;;;;8.58;100.00;100944.91;5029895;28;20057;-65
2022/09/20 03:48:25;;;;;;;2.90;0.93;;;;;;;8.61;100.00;100943.91;5044167;28;20045;-66
2022/09/20 03:51:29;;;;;;;3.65;0.90;;;;;;;8.65;100.00;100939.38;5048188;28;20535;-65
2022/09/20 03:54:18;;;;;;;2.28;1.13;;;;;;;8.67;100.00;100941.00;5046398;28;20049;-65
2022/09/20 03:57:14;;;;;;;6.03;1.48;;;;;;;8.70;100.00;100943.50;5048332;28;20049;-67
2022/09/20 03:59:53;;;;;;;4.93;2.13;;;;;;;8.69;100.00;100948.78;5045409;28;20041;-65
2022/09/20 04:02:38;;;;;;;5.18;2.05;;;;;;;8.70;100.00;100946.13;5046019;28;20049;-66
2022/09/20 04:05:14;;;;;;;7.93;3.30;;;;;;;8.71;100.00;100947.81;5031727;28;20044;-66
2022/09/20 04:07:59;;;;;;;4.18;2.83;;;;;;;8.75;100.00;100951.16;5033857;28;20044;-65
2022/09/20 04:10:58;;;;;;;16.57;4.13;;;;;;;8.74;100.00;100952.09;5046489;28;20048;-65
2022/09/20 04:13:34;;;;;;;5.38;3.40;;;;;;;8.75;100.00;100964.28;4963092;28;20049;-67
2022/09/20 04:16:18;;;;;;;3.97;3.22;;;;;;;8.74;100.00;100966.06;5047044;28;20049;-67
2022/09/20 04:18:55;;;;;;;4.57;2.80;;;;;;;8.83;100.00;100963.00;5029965;28;20072;-65
2022/09/20 04:21:22;;;;;;;7.10;2.67;;;;;;;8.81;100.00;100958.75;5031068;28;20056;-65
2022/09/20 04:23:56;;;;;;;4.15;2.55;;;;;;;8.79;100.00;100968.47;5030441;28;20544;-65
2022/09/20 04:26:29;;;;;;;7.75;3.15;;;;;;;8.78;100.00;100965.00;5028356;28;20045;-66
2022/09/20 04:29:00;;;;;;;3.25;2.60;;;;;;;8.79;100.00;100969.31;5044277;28;20563;-66
2022/09/20 04:31:46;;;;;;;7.72;3.75;;;;;;;8.77;100.00;100965.91;5044014;28;20061;-65
2022/09/20 04:36:27;;;;;;;6.07;3.75;;;;;;;8.76;100.00;100969.44;5046539;28;20049;-66
2022/09/20 04:37:23;;;;;;;10.93;3.78;;;;;;;8.71;100.00;100966.19;5026540;28;20057;-66
2022/09/20 04:40:05;;;;;;;5.68;3.90;;;;;;;8.72;100.00;100969.66;5046247;28;20063;-66
2022/09/20 04:42:58;;;;;;;6.22;4.07;;;;;;;8.70;100.00;100959.25;5045701;28;20056;-66
2022/09/20 04:45:50;;;;;;;5.88;3.95;;;;;;;8.69;100.00;100965.41;5046604;28;20568;-66
2022/09/20 04:48:32;;;;;;;7.25;4.13;;;;;;;8.71;100.00;100966.19;5038286;28;20036;-65
2022/09/20 04:51:07;;;;;;;5.28;3.33;;;;;;;8.68;100.00;100966.31;5037105;28;20060;-66
2022/09/20 04:53:57;;;;;;;3.33;2.28;;;;;;;8.68;100.00;100970.72;5017881;28;20084;-66
2022/09/20 04:56:53;;;;;;;3.85;2.25;;;;;;;8.73;100.00;100964.34;5031638;28;20045;-66
2022/09/20 04:59:47;;;;;;;3.33;2.05;;;;;;;8.71;100.00;100971.44;5025249;28;20057;-67
2022/09/20 05:02:27;;;;;;;6.78;1.60;;;;;;;8.65;100.00;100970.88;5045077;28;20052;-66
2022/09/20 05:05:23;;;;;;;3.72;2.10;;;;;;;8.64;100.00;100975.25;5056310;28;20556;-65
2022/09/20 05:08:11;;;;;;;4.43;1.52;;;;;;;8.72;100.00;100977.53;5026876;28;20053;-65
2022/09/20 05:11:16;;;;;;;4.10;1.38;;;;;;;8.71;100.00;100978.47;5027366;28;20057;-66
2022/09/20 05:14:23;;;;;;;11.38;3.47;;;;;;;8.75;100.00;100990.53;5047516;28;20061;-65
2022/09/20 05:17:37;;;;;;;3.75;1.63;;;;;;;8.73;100.00;100994.97;5046531;28;20059;-66
2022/09/20 05:20:23;;;;;;;7.05;1.42;;;;;;;8.79;100.00;100994.72;4942542;28;20066;-65
2022/09/20 05:23:27;;;;;;;5.80;1.65;;;;;;;8.78;100.00;101000.88;5023143;28;20059;-66
2022/09/20 05:26:09;;;;;;;3.30;1.45;;;;;;;8.81;100.00;100998.97;5019801;28;20056;-65
2022/09/20 05:28:55;;;;;;;4.85;1.23;;;;;;;8.83;100.00;100998.91;5032129;28;20048;-66
2022/09/20 05:31:59;;;;;;;6.25;2.10;;;;;;;8.82;100.00;101011.16;5035932;28;20495;-65
2022/09/20 05:34:33;;;;;;;2.47;1.40;;;;;;;8.88;100.00;101005.66;5038539;28;20049;-65
2022/09/20 05:37:23;;;;;;;3.60;1.50;;;;;;;8.90;100.00;101013.44;5019881;28;20042;-65
2022/09/20 05:40:01;;;;;;;5.43;1.77;;;;;;;8.88;100.00;101020.56;5028340;28;20049;-65
2022/09/20 05:42:42;;;;;;;6.35;2.17;;;;;;;8.89;100.00;101014.38;5021406;28;20049;-65
2022/09/20 05:45:20;;;;;;;2.65;1.40;;;;;;;9.00;100.00;101016.50;5025664;28;20051;-66
2022/09/20 05:48:04;;;;;;;4.32;1.33;;;;;;;8.99;100.00;101026.16;5044850;28;20053;-65
2022/09/20 05:50:53;;;;;;;2.10;1.05;;;;;;;9.06;100.00;101022.34;5025036;28;20080;-66
2022/09/20 05:53:49;;;;;;;3.38;1.55;;;;;;;9.07;100.00;101029.28;5044080;28;20057;-65
2022/09/20 05:56:33;;;;;;;2.90;1.40;;;;;;;9.10;100.00;101031.78;5028062;28;20444;-66
2022/09/20 05:59:12;;;;;;;1.85;1.20;;;;;;;9.16;100.00;101030.63;5032268;28;20140;-66
2022/09/20 06:01:57;;;;;;;4.95;1.60;;;;;;;9.23;100.00;101041.69;5044251;28;20059;-65
2022/09/20 06:04:29;;;;;;;2.13;1.23;;;;;;;9.27;100.00;101045.88;5048945;28;20057;-64
2022/09/20 06:07:05;;;;;;;6.05;2.10;;;;;;;9.38;100.00;101046.25;5046761;28;20048;-65
2022/09/20 06:09:55;;;;;;;4.15;1.25;;;;;;;9.41;100.00;101046.13;5045795;28;20045;-65
2022/09/20 06:12:39;;;;;;;5.53;1.38;;;;;;;9.38;100.00;101054.97;5046231;28;20059;-65
2022/09/20 06:15:31;;;;;;;4.70;1.77;;;;;;;9.41;100.00;101056.63;5045766;28;20401;-63
2022/09/20 06:18:06;;;;;;;3.70;1.50;;;;;;;9.43;100.00;101056.53;5032133;28;20045;-63
2022/09/20 06:20:53;;;;;;;3.00;1.40;;;;;;;9.43;100.00;101054.75;5050510;28;20048;-63
2022/09/20 06:23:20;;;;;;;4.90;1.60;;;;;;;9.46;100.00;101061.66;5030465;28;20057;-64
2022/09/20 06:25:55;;;;;;;5.05;1.50;;;;;;;9.47;100.00;101066.84;5035030;28;20048;-64
2022/09/20 06:28:29;;;;;;;3.40;1.50;;;;;;;9.51;100.00;101062.28;5036325;28;20073;-64
2022/09/20 06:30:56;;;;;;;8.10;2.33;;;;;;;9.56;100.00;101060.28;5033118;28;20065;-64
2022/09/20 06:33:27;;;;;;;6.32;2.35;;;;;;;9.55;100.00;101061.22;5048594;28;20109;-64
2022/09/20 06:41:25;;;;;;;9.68;2.20;;;;;;;9.59;100.00;101062.75;5050852;28;20497;-65
2022/09/20 06:42:01;;;;;;;9.65;2.50;;;;;;;9.62;100.00;101060.00;5036134;28;20056;-65
2022/09/20 06:44:28;;;;;;;6.95;1.92;;;;;;;9.60;100.00;101062.69;5050434;28;20053;-65
2022/09/20 06:46:55;;;;;;;5.63;1.65;;;;;;;9.66;100.00;101071.22;5050674;28;20060;-65
2022/09/20 06:49:23;;;;;;;7.93;1.50;;;;;;;9.70;100.00;101070.16;5048032;28;20061;-65
2022/09/20 06:51:50;;;;;;;5.07;1.50;;;;;;;9.72;100.00;101065.66;5049936;28;20049;-65
2022/09/20 06:54:19;;;;;;;3.60;1.33;;;;;;;9.72;100.00;101074.38;5030325;28;20049;-65
2022/09/20 06:56:47;;;;;;;5.35;1.30;;;;;;;9.75;100.00;101070.78;5029695;28;20048;-65
2022/09/20 06:59:15;;;;;;;3.30;1.67;;;;;;;9.80;100.00;101074.88;5033290;28;20060;-65
2022/09/20 07:01:42;;;;;;;6.35;1.88;;;;;;;9.81;100.00;101070.47;5051385;28;20056;-65
2022/09/20 07:04:09;;;;;;;6.55;1.88;;;;;;;9.83;100.00;101082.63;5050917;28;20059;-65
2022/09/20 07:06:36;;;;;;;4.85;2.17;;;;;;;9.79;100.00;101080.22;5029517;28;20175;-65
2022/09/20 07:09:04;;;;;;;4.50;1.77;;;;;;;9.79;100.00;101086.31;5032898;28;20048;-65
2022/09/20 07:11:33;;;;;;;15.25;2.72;;;;;;;9.82;100.00;101090.59;5049751;28;20064;-65
2022/09/20 07:14:00;;;;;;;5.60;3.10;;;;;;;9.74;100.00;101093.59;5050061;28;20045;-65
2022/09/20 07:16:27;;;;;;;13.98;3.55;;;;;;;9.76;100.00;101096.13;5050774;28;20045;-65
2022/09/20 07:18:55;;;;;;;6.95;3.53;;;;;;;9.84;100.00;101094.00;5057827;23;20053;-64
2022/09/20 07:21:23;;;;;;;5.75;3.72;;;;;;;9.76;100.00;101094.34;5027757;28;20064;-64
2022/09/20 07:23:50;;;;;;;6.28;3.80;;;;;;;9.69;100.00;101102.63;5031444;28;20045;-64
2022/09/20 07:26:21;;;;;;;7.72;3.53;;;;;;;9.69;100.00;101097.38;5010686;28;20484;-64
2022/09/20 07:28:49;;;;;;;8.00;3.35;;;;;;;9.72;100.00;101097.19;5032630;28;20064;-63
2022/09/20 07:31:18;;;;;;;11.10;3.78;;;;;;;9.76;100.00;101096.97;5037075;28;20524;-64
2022/09/20 07:33:45;;;;;;;6.63;3.45;;;;;;;9.70;100.00;101106.94;5036018;28;20049;-64
2022/09/20 07:36:12;;;;;;;5.28;3.70;;;;;;;9.68;100.00;101103.53;5030967;28;20049;-64
2022/09/20 07:38:40;;;;;;;8.70;3.30;;;;;;;9.64;100.00;101110.72;5030279;28;20060;-64
2022/09/20 07:41:09;;;;;;;7.43;3.60;;;;;;;9.69;100.00;101113.16;5033193;28;20056;-65
2022/09/20 07:43:36;;;;;;;5.90;3.80;;;;;;;9.78;100.00;101113.56;5028872;28;20060;-65
2022/09/20 07:46:03;;;;;;;9.77;3.67;;;;;;;9.83;100.00;101108.91;5033506;28;20045;-64
2022/09/20 07:48:33;;;;;;;4.70;3.00;;;;;;;9.95;100.00;101111.88;5029741;28;20045;-64
2022/09/20 07:51:09;;;;;;;7.25;3.08;;;;;;;9.98;100.00;101119.63;5026937;28;20072;-65
2022/09/20 07:53:37;;;;;;;6.72;3.42;;;;;;;10.12;100.00;101118.00;5031587;28;20049;-64
2022/09/20 07:56:14;;;;;;;5.10;2.85;;;;;;;10.14;100.00;101124.06;5029402;28;20053;-65
2022/09/20 07:58:43;;;;;;;5.60;2.40;;;;;;;10.25;100.00;101127.97;5030062;28;20061;-65
2022/09/20 08:01:18;;;;;;;7.50;2.05;;;;;;;10.26;100.00;101129.66;5031201;28;20049;-65
2022/09/20 08:03:46;;;;;;;5.90;2.47;;;;;;;10.36;100.00;101130.94;5017712;28;20056;-65
2022/09/20 08:06:17;;;;;;;4.60;2.30;;;;;;;10.49;100.00;101129.41;5035148;28;20053;-64
2022/09/20 08:08:44;;;;;;;6.55;2.40;;;;;;;10.61;100.00;101126.13;5037680;28;20068;-64
2022/09/20 08:11:17;;;;;;;6.57;2.58;;;;;;;10.75;100.00;101143.00;5031772;28;20425;-64
2022/09/20 08:13:48;;;;;;;4.53;1.70;;;;;;;10.77;100.00;101128.00;5037428;28;20079;-65
2022/09/20 08:16:47;;;;;;;6.85;1.50;;;;;;;10.94;100.00;101127.09;5032977;28;20067;-65
2022/09/20 08:19:19;;;;;;;4.65;1.40;;;;;;;11.01;100.00;101134.59;5029791;28;20533;-66
2022/09/20 08:21:47;;;;;;;5.78;2.00;;;;;;;11.10;99.83;101138.53;5026193;28;20066;-65
2022/09/20 08:24:15;;;;;;;7.53;1.58;;;;;;;11.19;98.68;101142.47;5030125;28;20038;-65
2022/09/20 08:26:42;;;;;;;4.03;1.20;;;;;;;11.14;99.45;101140.91;5012540;28;20054;-63
2022/09/20 08:29:10;;;;;;;9.63;3.50;;;;;;;11.13;99.30;101139.22;5020279;28;20045;-64
2022/09/20 08:31:40;;;;;;;3.97;1.55;;;;;;;11.20;99.60;101144.16;5038747;28;20053;-64
2022/09/20 08:34:10;;;;;;;11.45;1.95;;;;;;;11.25;99.60;101142.97;5032030;28;20494;-64
2022/09/20 08:36:40;;;;;;;5.47;1.40;;;;;;;11.35;98.98;101151.28;5031711;28;20551;-64
2022/09/20 08:39:07;;;;;;;4.55;1.27;;;;;;;11.41;99.28;101153.56;5028957;28;20049;-64
2022/09/20 08:41:59;;;;;;;3.75;1.30;;;;;;;11.51;97.94;101156.53;5029663;28;20441;-65
2022/09/20 08:44:32;;;;;;;5.05;1.55;;;;;;;11.58;98.50;101158.78;5038198;28;20446;-64
2022/09/20 08:47:02;;;;;;;;;;;;;;;11.70;98.52;101157.22;5014029;28;20061;-64
2022/09/20 08:49:29;;;;;;;5.55;1.23;;;;;;;11.83;97.62;101162.72;5026516;28;20020;-64
2022/09/20 08:51:57;;;;;;;4.32;1.80;;;;;;;11.83;96.91;101160.09;5026237;28;20049;-64
2022/09/20 08:54:25;;;;;;;6.13;2.00;;;;;;;11.83;96.56;101160.09;5013211;28;20140;-64
2022/09/20 08:57:12;;;;;;;4.60;1.65;;;;;;;11.89;95.99;101160.59;5032729;28;20526;-64
2022/09/20 08:59:40;;;;;;;5.70;1.23;;;;;;;11.94;96.20;101151.59;5029528;28;20077;-63
2022/09/20 09:02:19;;;;;;;5.15;1.23;;;;;;;12.04;96.63;101165.97;5039241;28;20052;-64
2022/09/20 09:04:48;;;;;;;7.65;1.20;;;;;;;12.16;95.57;101158.19;5024188;28;20152;-63
2022/09/20 09:07:17;;;;;;;4.60;1.10;;;;;;;12.26;94.77;101155.88;5037826;28;20057;-63
2022/09/20 09:09:46;;;;;;;8.07;1.13;;;;;;;12.34;94.81;101160.72;5033460;28;20056;-62
2022/09/20 09:12:18;;;;;;;2.72;1.10;;;;;;;12.42;92.24;101161.97;5019673;28;20549;-63
2022/09/20 09:14:49;;;;;;;4.68;1.23;;;;;;;12.47;90.60;101160.84;5036368;28;20057;-63
2022/09/20 09:17:19;;;;;;;4.53;0.93;;;;;;;12.57;91.41;101162.03;5013912;28;20049;-64
2022/09/20 09:19:54;;;;;;;6.60;1.42;;;;;;;12.65;90.67;101162.41;5032442;28;20060;-63
2022/09/20 09:22:23;;;;;;;;;;;;;;;12.72;90.15;101165.53;5026612;28;20049;-62
2022/09/20 09:25:05;;;;;;;3.65;1.00;;;;;;;12.87;89.27;101170.75;5034640;28;19920;-63
2022/09/20 09:27:51;;;;;;;2.30;0.90;;;;;;;12.93;89.72;101167.75;5033169;28;20099;-61
2022/09/20 09:30:26;;;;;;;4.68;1.00;;;;;;;12.96;88.65;101168.50;5036781;28;20045;-63
2022/09/20 09:33:13;;;;;;;1.67;1.00;;;;;;;13.10;87.89;101166.75;5038495;28;20140;-65
2022/09/20 09:35:40;;;;;;;4.88;1.00;;;;;;;13.10;86.93;101169.41;5035802;28;20498;-62
2022/09/20 09:38:17;;;;;;;1.83;0.90;;;;;;;13.21;87.39;101162.59;5042123;28;20077;-65
2022/09/20 09:40:50;;;;;;;6.20;1.60;;;;;;;13.31;86.20;101167.25;5024582;28;20046;-63
2022/09/20 09:43:27;;;;;;;4.88;0.80;;;;;;;13.35;82.78;101168.75;5019792;28;20136;-63
2022/09/20 09:46:16;;;;;;;3.50;0.75;;;;;;;13.44;83.67;101170.00;5038447;28;20514;-62
2022/09/20 09:48:48;;;;;;;3.08;0.93;;;;;;;13.47;82.13;101169.81;5032200;28;20405;-62
2022/09/20 09:51:17;;;;;;;5.63;1.35;;;;;;;13.51;82.39;101168.66;5024542;28;20054;-62
2022/09/20 09:53:46;;;;;;;3.70;1.00;;;;;;;13.50;82.45;101171.38;5038295;28;20045;-63
2022/09/20 09:56:34;;;;;;;4.43;0.90;;;;;;;13.47;82.55;101163.66;5014537;28;20095;-63
2022/09/20 09:59:21;;;;;;;5.50;2.00;;;;;;;13.51;82.60;101163.38;5032373;28;20077;-63
2022/09/20 10:02:14;;;;;;;1.95;0.60;;;;;;;13.60;81.24;101164.59;5015555;28;20394;-63
2022/09/20 10:04:51;;;;;;;6.07;1.13;;;;;;;13.68;80.34;101154.34;5014242;28;20065;-63
2022/09/20 10:07:39;;;;;;;3.05;1.58;;;;;;;13.62;78.33;101160.06;5032400;28;20054;-63
2022/09/20 10:10:31;;;;;;;4.25;1.17;;;;;;;13.54;79.32;101157.03;5031001;28;20066;-63
2022/09/20 10:13:25;;;;;;;5.85;2.10;;;;;;;13.55;81.44;101158.72;5018832;28;20731;-63
2022/09/20 10:16:15;;;;;;;5.18;1.52;;;;;;;13.57;81.26;101152.41;5014805;28;20053;-63
2022/09/20 10:19:11;;;;;;;4.95;1.50;;;;;;;13.63;80.32;101146.72;5030459;28;20046;-63
2022/09/20 10:22:00;;;;;;;4.88;1.90;;;;;;;13.74;80.83;101158.44;5026992;28;20410;-63
2022/09/20 10:24:49;;;;;;;2.80;1.67;;;;;;;13.82;79.14;101156.13;5036318;28;20056;-64
2022/09/20 10:27:18;;;;;;;4.30;1.65;;;;;;;14.00;78.56;101154.94;5019194;28;20072;-64
2022/09/20 10:29:53;;;;;;;8.50;1.60;;;;;;;13.94;76.56;101152.69;5034034;28;20052;-63
2022/09/20 10:32:54;;;;;;;5.07;1.30;;;;;;;14.07;76.53;101150.94;5021868;28;20073;-64
2022/09/20 10:35:44;;;;;;;3.90;1.55;;;;;;;14.17;77.13;101164.44;5010478;28;20061;-63
2022/09/20 10:38:22;;;;;;;8.65;1.85;;;;;;;14.21;76.70;101158.00;5025532;28;20049;-63
2022/09/20 10:44:15;;;;;;;2.70;1.10;;;;;;;14.02;75.53;101176.03;5035016;28;20472;-64
2022/09/20 10:47:13;;;;;;;2.58;1.70;;;;;;;13.77;76.62;101176.75;5033699;28;20058;-64
2022/09/20 10:49:45;;;;;;;4.70;1.30;;;;;;;13.63;78.05;101183.75;5005769;28;20049;-63
2022/09/20 10:53:04;;;;;;;6.57;2.28;;;;;;;13.48;80.69;101190.00;5043989;28;20048;-63
2022/09/20 10:55:52;;;;;;;6.25;2.47;;;;;;;13.48;82.15;101189.16;5026294;28;20062;-64
2022/09/20 10:58:38;;;;;;;5.85;2.42;;;;;;;13.31;83.48;101191.03;5024111;28;20132;-64
2022/09/20 11:01:10;;;;;;;5.78;2.00;;;;;;;13.18;83.36;101192.69;5011253;28;21161;-64
2022/09/20 11:03:54;;;;;;;6.05;2.28;;;;;;;13.07;84.45;101190.72;5029241;28;20055;-64
2022/09/20 11:06:57;;;;;;;5.35;2.70;;;;;;;13.12;84.94;101196.56;5014021;28;20056;-64
2022/09/20 11:09:30;;;;;;;7.15;3.25;;;;;;;13.14;85.72;101210.53;5031482;28;20045;-63
2022/09/20 11:12:26;;;;;;;6.28;2.83;;;;;;;13.25;85.87;101232.88;5035128;28;20049;-63
2022/09/20 11:14:57;;;;;;;5.90;1.13;;;;;;;13.08;80.71;101236.50;5013608;28;20068;-64
2022/09/20 11:17:30;;;;;;;8.05;1.23;;;;;;;12.92;84.82;101237.44;5018655;28;20057;-64
2022/09/20 11:20:09;;;;;;;5.25;1.10;;;;;;;12.78;85.59;101232.06;5052955;28;20539;-63
2022/09/20 11:22:41;;;;;;;8.60;1.38;;;;;;;12.68;86.94;101233.56;5032131;28;20540;-63
2022/09/20 11:25:13;;;;;;;3.85;1.63;;;;;;;12.60;87.43;101234.00;5037347;28;20053;-64
2022/09/20 11:27:52;;;;;;;4.13;1.40;;;;;;;12.52;87.50;101230.97;5032857;28;20048;-63
2022/09/20 11:30:20;;;;;;;5.75;1.10;;;;;;;12.42;88.12;101230.59;5030761;28;20048;-63
2022/09/20 11:32:52;;;;;;;1.73;1.00;;;;;;;12.30;89.25;101228.69;5060136;28;20060;-63
2022/09/20 11:35:29;;;;;;;1.48;0.70;;;;;;;12.01;90.65;101229.44;5039478;28;20076;-63
2022/09/20 11:38:03;;;;;;;2.65;0.70;;;;;;;11.79;90.84;101232.38;5022369;28;20059;-63
2022/09/20 11:40:34;;;;;;;4.90;1.23;;;;;;;11.63;91.93;101229.72;5053212;28;20057;-63
2022/09/20 11:43:05;;;;;;;3.35;1.00;;;;;;;11.53;92.45;101229.38;5054161;28;20051;-63
2022/09/20 11:45:32;;;;;;;1.92;0.85;;;;;;;11.55;92.82;101231.91;5032352;28;20444;-63
2022/09/20 11:48:09;;;;;;;5.00;1.35;;;;;;;11.58;92.58;101239.69;5013906;28;20119;-63
2022/09/20 11:50:45;;;;;;;2.72;0.90;;;;;;;11.49;91.47;101242.81;5027296;28;20607;-63
2022/09/20 11:53:40;;;;;;;4.30;1.02;;;;;;;11.57;92.77;101236.19;5045942;28;20037;-63
2022/09/20 11:56:27;;;;;;;3.42;1.00;;;;;;;11.72;93.10;101244.22;5046868;28;20047;-64
2022/09/20 11:58:57;;;;;;;2.92;1.48;;;;;;;11.72;91.73;101242.41;5049208;28;20064;-64
2022/09/20 12:01:36;;;;;;;4.93;1.40;;;;;;;11.69;93.04;101244.38;5036194;28;20049;-63
2022/09/20 12:04:23;;;;;;;4.47;1.30;;;;;;;11.64;92.97;101240.19;5040273;28;20053;-64
2022/09/20 12:07:25;;;;;;;1.55;1.27;;;;;;;11.79;92.61;101241.13;5030155;28;20501;-64
2022/09/20 12:09:55;;;;;;;4.35;1.48;;;;;;;11.95;90.98;101238.56;5038387;28;20060;-64
2022/09/20 12:12:42;;;;;;;2.95;1.30;;;;;;;11.97;91.12;101243.75;5072718;28;20056;-64
2022/09/20 12:15:26;;;;;;;2.47;1.30;;;;;;;12.12;91.06;101240.28;5051617;28;20410;-64
2022/09/20 12:17:56;;;;;;;4.57;1.70;;;;;;;12.51;92.14;101238.94;5032657;28;20405;-63
2022/09/20 12:20:49;;;;;;;3.30;1.83;;;;;;;13.08;90.49;101237.34;5048480;28;20056;-64
2022/09/20 12:23:41;;;;;;;4.13;2.08;;;;;;;13.62;90.34;101234.97;5020440;28;20041;-64
2022/09/20 12:26:17;;;;;;;7.22;2.30;;;;;;;14.07;88.47;101238.31;5046664;28;20062;-64
2022/09/20 12:28:48;;;;;;;3.72;2.08;;;;;;;14.35;85.95;101233.91;5056395;28;20049;-64